createdAt,value
2022-12-01T00:01:04.223Z,86.87
2022-12-01T00:03:52.135Z,87.15
2022-12-01T00:06:39.869Z,87.20
2022-12-01T00:09:46.496Z,87.09
2022-12-01T00:12:33.692Z,87.22
2022-12-01T00:15:22.051Z,87.11
2022-12-01T00:18:10.416Z,87.10
2022-12-01T00:20:58.038Z,86.93
2022-12-01T00:23:48.563Z,87.11
2022-12-01T00:26:38.038Z,87.08
2022-12-01T00:29:25.691Z,87.29
2022-12-01T00:32:14.722Z,87.28
2022-12-01T00:35:03.368Z,87.45
2022-12-01T00:37:50.769Z,87.23
2022-12-01T00:40:38.133Z,86.86
2022-12-01T00:43:25.655Z,86.71
2022-12-01T00:46:13.292Z,86.52
2022-12-01T00:49:00.602Z,86.52
2022-12-01T00:51:48.253Z,86.34
2022-12-01T00:54:35.707Z,86.55
2022-12-01T00:57:23.450Z,86.20
2022-12-01T01:00:12.411Z,85.99
2022-12-01T01:03:00.404Z,86.01
2022-12-01T01:05:47.853Z,85.87
2022-12-01T01:08:36.302Z,86.04
2022-12-01T01:11:23.882Z,85.91
2022-12-01T01:14:11.487Z,86.02
2022-12-01T01:16:59.261Z,85.64
2022-12-01T01:19:46.922Z,85.37
2022-12-01T01:22:35.612Z,85.33
2022-12-01T01:25:23.638Z,85.27
2022-12-01T01:28:11.213Z,85.37
2022-12-01T01:30:59.193Z,85.40
2022-12-01T01:33:47.564Z,85.05
2022-12-01T01:36:35.189Z,85.55
2022-12-01T01:39:23.180Z,85.35
2022-12-01T01:42:14.302Z,85.48
2022-12-01T01:45:01.942Z,85.41
2022-12-01T01:47:52.882Z,85.42
2022-12-01T01:50:40.502Z,85.63
2022-12-01T01:53:29.590Z,85.88
2022-12-01T01:56:17.612Z,85.86
2022-12-01T01:59:05.130Z,85.89
2022-12-01T02:02:02.237Z,85.76
2022-12-01T02:04:57.490Z,85.88
2022-12-01T02:07:47.157Z,85.86
2022-12-01T02:10:53.192Z,85.84
2022-12-01T02:14:06.672Z,85.70
2022-12-01T02:17:17.486Z,85.73
2022-12-01T02:20:42.565Z,85.68
2022-12-01T02:24:02.946Z,85.67
2022-12-01T02:27:42.179Z,85.56
2022-12-01T02:31:08.892Z,85.55
2022-12-01T02:34:04.729Z,85.64
2022-12-01T02:37:25.128Z,85.69
2022-12-01T02:40:23.216Z,85.48
2022-12-01T02:43:22.421Z,85.62
2022-12-01T02:46:47.618Z,85.44
2022-12-01T02:49:41.255Z,85.74
2022-12-01T02:52:29.758Z,85.52
2022-12-01T02:55:17.547Z,85.76
2022-12-01T02:58:14.966Z,85.85
2022-12-01T03:01:38.056Z,85.49
2022-12-01T03:04:52.599Z,85.62
2022-12-01T03:08:00.172Z,86.10
2022-12-01T03:10:59.616Z,85.84
2022-12-01T03:14:01.354Z,85.91
2022-12-01T03:16:54.507Z,85.89
2022-12-01T03:19:53.543Z,86.07
2022-12-01T03:22:52.248Z,84.94
2022-12-01T03:25:44.725Z,84.97
2022-12-01T03:28:38.002Z,85.40
2022-12-01T03:31:37.809Z,85.42
2022-12-01T03:34:44.003Z,84.51
2022-12-01T03:37:43.332Z,84.25
2022-12-01T03:40:33.690Z,84.13
2022-12-01T03:43:28.145Z,84.46
2022-12-01T03:46:44.642Z,84.63
2022-12-01T03:49:33.160Z,84.67
2022-12-01T03:52:44.032Z,84.89
2022-12-01T03:55:38.110Z,84.80
2022-12-01T03:58:34.339Z,84.82
2022-12-01T04:01:22.498Z,84.84
2022-12-01T04:04:13.344Z,84.49
2022-12-01T04:07:01.119Z,84.52
2022-12-01T04:09:48.910Z,84.51
2022-12-01T04:12:36.989Z,84.47
2022-12-01T04:15:25.749Z,84.38
2022-12-01T04:18:13.366Z,84.19
2022-12-01T04:21:00.703Z,84.14
2022-12-01T04:24:00.279Z,84.17
2022-12-01T04:26:48.158Z,84.53
2022-12-01T04:29:35.744Z,84.27
2022-12-01T04:32:23.297Z,84.16
2022-12-01T04:35:12.757Z,83.83
2022-12-01T04:38:00.078Z,84.11
2022-12-01T04:40:47.371Z,84.19
2022-12-01T04:43:34.662Z,84.00
2022-12-01T04:46:23.698Z,84.01
2022-12-01T04:49:11.341Z,84.11
2022-12-01T04:51:59.357Z,84.17
2022-12-01T04:54:46.943Z,83.31
2022-12-01T04:57:34.566Z,82.80
2022-12-01T05:00:22.137Z,83.12
2022-12-01T05:03:14.901Z,83.32
2022-12-01T05:06:10.026Z,83.58
2022-12-01T05:09:00.829Z,83.32
2022-12-01T05:11:48.460Z,83.51
2022-12-01T05:14:35.991Z,83.60
2022-12-01T05:17:23.630Z,83.67
2022-12-01T05:20:39.108Z,83.32
2022-12-01T05:23:30.030Z,83.22
2022-12-01T05:26:17.492Z,83.34
2022-12-01T05:29:05.268Z,83.49
2022-12-01T05:31:53.116Z,83.57
2022-12-01T05:34:40.490Z,83.60
2022-12-01T05:37:33.274Z,83.68
2022-12-01T05:40:20.680Z,83.68
2022-12-01T05:43:08.483Z,83.68
2022-12-01T05:45:56.495Z,83.46
2022-12-01T05:48:44.142Z,83.35
2022-12-01T05:51:31.719Z,83.29
2022-12-01T05:54:19.390Z,83.38
2022-12-01T05:57:06.774Z,83.38
2022-12-01T05:59:54.239Z,83.42
2022-12-01T06:02:42.941Z,83.43
2022-12-01T06:05:30.499Z,83.56
2022-12-01T06:08:17.869Z,83.49
2022-12-01T06:11:06.188Z,83.59
2022-12-01T06:13:53.980Z,83.40
2022-12-01T06:16:41.683Z,83.49
2022-12-01T06:19:29.672Z,83.39
2022-12-01T06:22:17.627Z,83.59
2022-12-01T06:25:05.930Z,83.76
2022-12-01T06:27:59.706Z,83.79
2022-12-01T06:30:47.385Z,83.93
2022-12-01T06:33:34.974Z,83.87
2022-12-01T06:36:22.752Z,84.14
2022-12-01T06:39:10.867Z,84.23
2022-12-01T06:41:58.586Z,84.12
2022-12-01T06:44:46.343Z,84.26
2022-12-01T06:47:34.187Z,84.00
2022-12-01T06:50:22.594Z,84.15
2022-12-01T06:53:11.515Z,84.29
2022-12-01T06:56:04.461Z,84.49
2022-12-01T06:58:53.335Z,84.35
2022-12-01T07:01:41.064Z,84.24
2022-12-01T07:04:30.265Z,84.30
2022-12-01T07:07:17.949Z,84.49
2022-12-01T07:10:07.223Z,84.09
2022-12-01T07:12:57.253Z,83.85
2022-12-01T07:15:45.164Z,83.82
2022-12-01T07:18:34.338Z,83.81
2022-12-01T07:21:22.345Z,83.75
2022-12-01T07:24:10.390Z,83.87
2022-12-01T07:26:58.321Z,83.86
2022-12-01T07:29:45.548Z,83.63
2022-12-01T07:32:33.428Z,83.52
2022-12-01T07:35:22.305Z,83.71
2022-12-01T07:38:09.922Z,83.94
2022-12-01T07:41:15.368Z,84.13
2022-12-01T07:44:03.524Z,84.30
2022-12-01T07:46:51.431Z,84.70
2022-12-01T07:49:39.171Z,85.25
2022-12-01T07:52:26.719Z,84.46
2022-12-01T07:55:14.443Z,84.22
2022-12-01T07:58:02.325Z,83.86
2022-12-01T08:00:50.065Z,83.53
2022-12-01T08:03:38.767Z,83.82
2022-12-01T08:06:27.271Z,83.71
2022-12-01T08:09:15.191Z,83.47
2022-12-01T08:12:02.783Z,83.24
2022-12-01T08:14:50.071Z,82.86
2022-12-01T08:17:37.974Z,83.20
2022-12-01T08:20:25.554Z,82.89
2022-12-01T08:23:13.251Z,82.87
2022-12-01T08:26:03.031Z,82.77
2022-12-01T08:28:50.814Z,82.67
2022-12-01T08:31:39.395Z,82.17
2022-12-01T08:34:27.435Z,81.97
2022-12-01T08:37:14.938Z,81.73
2022-12-01T08:40:02.926Z,81.63
2022-12-01T08:42:52.700Z,80.87
2022-12-01T08:45:40.249Z,80.29
2022-12-01T08:48:31.440Z,80.68
2022-12-01T08:51:19.366Z,80.85
2022-12-01T08:54:07.135Z,80.47
2022-12-01T08:56:54.879Z,80.60
2022-12-01T08:59:44.231Z,80.50
2022-12-01T09:02:31.802Z,79.89
2022-12-01T09:05:19.572Z,79.75
2022-12-01T09:08:25.512Z,79.84
2022-12-01T09:11:17.450Z,79.99
2022-12-01T09:14:05.370Z,79.45
2022-12-01T09:16:53.272Z,79.72
2022-12-01T09:19:40.738Z,79.15
2022-12-01T09:22:28.294Z,79.24
2022-12-01T09:25:15.933Z,79.56
2022-12-01T09:28:03.634Z,79.12
2022-12-01T09:30:51.340Z,79.01
2022-12-01T09:33:39.611Z,78.72
2022-12-01T09:36:28.995Z,78.57
2022-12-01T09:39:21.140Z,78.50
2022-12-01T09:42:15.529Z,78.12
2022-12-01T09:45:05.077Z,78.05
2022-12-01T09:47:55.629Z,78.00
2022-12-01T09:50:43.694Z,78.54
2022-12-01T09:53:31.331Z,78.44
2022-12-01T09:56:25.036Z,78.52
2022-12-01T09:59:43.253Z,78.68
2022-12-01T10:02:37.101Z,78.82
2022-12-01T10:05:31.616Z,78.59
2022-12-01T10:08:26.936Z,78.02
2022-12-01T10:11:37.022Z,77.74
2022-12-01T10:14:24.574Z,77.47
2022-12-01T10:17:48.821Z,77.62
2022-12-01T10:21:03.676Z,77.13
2022-12-01T10:24:09.791Z,76.97
2022-12-01T10:27:23.271Z,76.81
2022-12-01T10:30:39.337Z,77.03
2022-12-01T10:33:35.899Z,76.74
2022-12-01T10:36:25.084Z,76.33
2022-12-01T10:39:27.602Z,76.61
2022-12-01T10:42:39.948Z,76.25
2022-12-01T10:45:34.616Z,76.30
2022-12-01T10:48:23.522Z,76.31
2022-12-01T10:51:17.687Z,75.33
2022-12-01T10:54:11.688Z,75.53
2022-12-01T10:56:59.716Z,75.30
2022-12-01T10:59:55.644Z,75.31
2022-12-01T11:02:43.695Z,75.07
2022-12-01T11:05:42.400Z,75.52
2022-12-01T11:08:41.711Z,75.44
2022-12-01T11:11:40.692Z,74.22
2022-12-01T11:14:47.201Z,73.96
2022-12-01T11:17:44.945Z,73.14
2022-12-01T11:20:39.691Z,72.49
2022-12-01T11:23:29.403Z,71.72
2022-12-01T11:26:25.678Z,72.12
2022-12-01T11:29:37.571Z,71.42
2022-12-01T11:32:32.598Z,71.73
2022-12-01T11:35:24.030Z,72.35
2022-12-01T11:38:30.682Z,71.01
2022-12-01T11:41:45.194Z,71.50
2022-12-01T11:44:50.870Z,71.12
2022-12-01T11:48:03.446Z,71.69
2022-12-01T11:51:09.931Z,72.51
2022-12-01T11:54:29.996Z,73.11
2022-12-01T11:57:33.803Z,73.39
2022-12-01T12:00:26.643Z,73.67
2022-12-01T12:03:26.330Z,73.99
2022-12-01T12:06:40.537Z,73.09
2022-12-01T12:10:01.459Z,73.47
2022-12-01T12:13:16.342Z,72.92
2022-12-01T12:16:33.488Z,73.08
2022-12-01T12:20:13.981Z,73.12
2022-12-01T12:23:34.770Z,73.08
2022-12-01T12:26:30.700Z,73.51
2022-12-01T12:29:43.847Z,74.01
2022-12-01T12:33:19.514Z,74.54
2022-12-01T12:36:43.592Z,74.58
2022-12-01T12:40:08.651Z,74.49
2022-12-01T12:43:04.554Z,74.82
2022-12-01T12:46:14.383Z,74.55
2022-12-01T12:49:32.489Z,74.46
2022-12-01T12:52:33.728Z,74.33
2022-12-01T12:55:34.040Z,74.23
2022-12-01T12:58:40.342Z,74.39
2022-12-01T13:01:36.750Z,73.90
2022-12-01T13:04:38.010Z,73.83
2022-12-01T13:07:59.797Z,73.90
2022-12-01T13:11:03.159Z,73.84
2022-12-01T13:14:17.661Z,74.19
2022-12-01T13:17:23.436Z,74.12
2022-12-01T13:20:17.599Z,74.12
2022-12-01T13:23:06.047Z,74.39
2022-12-01T13:25:57.701Z,74.36
2022-12-01T13:28:55.568Z,74.70
2022-12-01T13:31:52.129Z,74.67
2022-12-01T13:34:47.608Z,74.50
2022-12-01T13:37:38.708Z,74.90
2022-12-01T13:40:31.457Z,74.94
2022-12-01T13:43:23.163Z,74.74
2022-12-01T13:46:22.976Z,74.98
2022-12-01T13:49:35.048Z,75.13
2022-12-01T13:52:22.329Z,75.49
2022-12-01T13:55:10.202Z,75.15
2022-12-01T13:57:57.675Z,75.42
2022-12-01T14:00:45.490Z,75.44
2022-12-01T14:03:41.200Z,75.59
2022-12-01T14:06:49.080Z,75.28
2022-12-01T14:09:41.125Z,75.36
2022-12-01T14:12:34.703Z,75.51
2022-12-01T14:15:35.204Z,75.77
2022-12-01T14:18:37.324Z,75.91
2022-12-01T14:21:49.738Z,75.53
2022-12-01T14:24:52.972Z,75.64
2022-12-01T14:27:43.865Z,75.54
2022-12-01T14:30:46.515Z,75.63
2022-12-01T14:34:01.430Z,75.60
2022-12-01T14:37:23.053Z,75.48
2022-12-01T14:40:20.164Z,75.78
2022-12-01T14:43:31.363Z,76.07
2022-12-01T14:46:24.576Z,76.28
2022-12-01T14:49:26.361Z,76.38
2022-12-01T14:52:29.112Z,76.26
2022-12-01T14:55:31.525Z,76.24
2022-12-01T14:58:28.395Z,76.42
2022-12-01T15:01:16.666Z,76.38
2022-12-01T15:04:06.398Z,76.44
2022-12-01T15:06:57.407Z,76.42
2022-12-01T15:10:06.577Z,76.46
2022-12-01T15:12:54.896Z,76.47
2022-12-01T15:15:55.873Z,76.28
2022-12-01T15:18:43.610Z,76.23
2022-12-01T15:21:32.302Z,76.39
2022-12-01T15:24:25.365Z,76.52
2022-12-01T15:27:32.812Z,76.51
2022-12-01T15:30:20.967Z,76.74
2022-12-01T15:33:25.462Z,77.07
2022-12-01T15:36:15.463Z,77.30
2022-12-01T15:39:07.036Z,77.62
2022-12-01T15:41:55.849Z,77.78
2022-12-01T15:44:43.671Z,77.54
2022-12-01T15:47:43.022Z,77.66
2022-12-01T15:50:41.247Z,77.56
2022-12-01T15:53:36.516Z,77.52
2022-12-01T15:56:38.113Z,77.80
2022-12-01T15:59:46.774Z,77.72
2022-12-01T16:02:34.537Z,77.88
2022-12-01T16:05:34.922Z,77.65
2022-12-01T16:08:28.034Z,77.79
2022-12-01T16:11:22.941Z,78.13
2022-12-01T16:14:22.262Z,78.09
2022-12-01T16:17:11.144Z,78.11
2022-12-01T16:20:21.987Z,77.90
2022-12-01T16:23:20.676Z,77.66
2022-12-01T16:26:08.985Z,77.82
2022-12-01T16:28:57.195Z,77.75
2022-12-01T16:32:12.825Z,78.05
2022-12-01T16:34:53.315Z,77.99
2022-12-01T16:37:40.838Z,78.17
2022-12-01T16:40:28.645Z,78.31
2022-12-01T16:43:19.831Z,78.63
2022-12-01T16:46:13.657Z,78.48
2022-12-01T16:49:01.647Z,78.57
2022-12-01T16:51:56.169Z,78.60
2022-12-01T16:54:44.597Z,78.89
2022-12-01T16:57:32.122Z,78.89
2022-12-01T17:00:20.180Z,78.96
2022-12-01T17:03:10.881Z,79.16
2022-12-01T17:06:03.968Z,79.50
2022-12-01T17:08:52.000Z,79.51
2022-12-01T17:11:39.384Z,78.86
2022-12-01T17:14:26.723Z,78.90
2022-12-01T17:17:14.820Z,78.53
2022-12-01T17:20:04.596Z,78.43
2022-12-01T17:22:52.020Z,78.67
2022-12-01T17:25:42.335Z,78.82
2022-12-01T17:28:29.758Z,78.82
2022-12-01T17:31:17.436Z,78.80
2022-12-01T17:34:05.473Z,78.96
2022-12-01T17:36:53.345Z,78.72
2022-12-01T17:39:41.089Z,78.85
2022-12-01T17:42:32.602Z,78.59
2022-12-01T17:45:21.429Z,78.90
2022-12-01T17:48:10.755Z,78.58
2022-12-01T17:50:58.950Z,78.82
2022-12-01T17:53:46.695Z,78.76
2022-12-01T17:56:35.079Z,78.92
2022-12-01T17:59:23.000Z,78.66
2022-12-01T18:02:12.970Z,78.52
2022-12-01T18:05:00.542Z,78.38
2022-12-01T18:07:48.503Z,78.51
2022-12-01T18:10:36.634Z,78.70
2022-12-01T18:13:24.309Z,78.59
2022-12-01T18:16:22.775Z,78.41
2022-12-01T18:19:11.171Z,78.33
2022-12-01T18:21:59.631Z,78.19
2022-12-01T18:24:47.178Z,78.00
2022-12-01T18:27:36.040Z,78.08
2022-12-01T18:30:23.439Z,77.77
2022-12-01T18:33:13.271Z,77.69
2022-12-01T18:36:01.058Z,77.97
2022-12-01T18:38:50.642Z,78.02
2022-12-01T18:41:38.984Z,77.91
2022-12-01T18:44:26.665Z,77.93
2022-12-01T18:47:14.210Z,78.24
2022-12-01T18:50:03.154Z,78.35
2022-12-01T18:52:50.918Z,78.34
2022-12-01T18:55:39.517Z,78.65
2022-12-01T18:58:27.114Z,78.54
2022-12-01T19:01:37.185Z,78.50
2022-12-01T19:04:24.805Z,78.48
2022-12-01T19:07:12.615Z,78.58
2022-12-01T19:10:01.751Z,78.37
2022-12-01T19:12:49.947Z,78.38
2022-12-01T19:15:37.685Z,78.48
2022-12-01T19:18:25.470Z,78.48
2022-12-01T19:21:18.117Z,78.61
2022-12-01T19:24:06.267Z,78.41
2022-12-01T19:26:53.838Z,78.53
2022-12-01T19:29:42.172Z,78.63
2022-12-01T19:32:34.192Z,78.48
2022-12-01T19:35:21.960Z,78.61
2022-12-01T19:38:09.756Z,78.64
2022-12-01T19:40:57.201Z,78.49
2022-12-01T19:43:44.642Z,78.49
2022-12-01T19:46:32.498Z,78.25
2022-12-01T19:49:20.559Z,78.35
2022-12-01T19:52:08.281Z,78.37
2022-12-01T19:54:56.320Z,78.52
2022-12-01T19:57:43.620Z,78.36
2022-12-01T20:00:32.146Z,78.27
2022-12-01T20:03:21.349Z,78.23
2022-12-01T20:06:17.376Z,77.84
2022-12-01T20:09:07.501Z,77.67
2022-12-01T20:11:55.268Z,77.63
2022-12-01T20:14:42.892Z,77.48
2022-12-01T20:17:30.939Z,77.52
2022-12-01T20:20:18.999Z,77.90
2022-12-01T20:23:08.997Z,77.94
2022-12-01T20:26:00.807Z,77.84
2022-12-01T20:28:51.638Z,77.73
2022-12-01T20:31:41.228Z,77.80
2022-12-01T20:34:33.402Z,77.93
2022-12-01T20:37:20.881Z,78.00
2022-12-01T20:40:09.090Z,78.02
2022-12-01T20:42:56.771Z,78.07
2022-12-01T20:45:44.910Z,78.41
2022-12-01T20:48:33.704Z,78.41
2022-12-01T20:51:21.392Z,78.43
2022-12-01T20:54:27.848Z,78.56
2022-12-01T20:57:16.664Z,78.85
2022-12-01T21:00:06.011Z,79.07
2022-12-01T21:03:00.156Z,78.85
2022-12-01T21:05:47.852Z,79.06
2022-12-01T21:08:41.574Z,79.15
2022-12-01T21:11:53.120Z,79.17
2022-12-01T21:15:17.683Z,78.91
2022-12-01T21:18:12.763Z,79.18
2022-12-01T21:21:12.461Z,79.02
2022-12-01T21:24:14.023Z,78.93
2022-12-01T21:27:12.751Z,78.94
2022-12-01T21:30:00.728Z,78.99
2022-12-01T21:32:49.652Z,79.16
2022-12-01T21:35:37.678Z,78.94
2022-12-01T21:38:25.577Z,78.83
2022-12-01T21:41:21.049Z,78.85
2022-12-01T21:44:18.215Z,78.50
2022-12-01T21:47:20.765Z,78.50
2022-12-01T21:50:18.029Z,78.57
2022-12-01T21:53:18.245Z,78.79
2022-12-01T21:56:06.064Z,78.60
2022-12-01T21:58:58.954Z,78.92
2022-12-01T22:01:53.473Z,78.77
2022-12-01T22:04:41.053Z,78.48
2022-12-01T22:07:28.707Z,78.49
2022-12-01T22:11:10.033Z,78.50
2022-12-01T22:14:29.074Z,78.63
2022-12-01T22:17:21.377Z,78.31
2022-12-01T22:20:22.419Z,78.44
2022-12-01T22:23:12.858Z,78.36
2022-12-01T22:26:00.380Z,78.25
2022-12-01T22:28:55.569Z,78.32
2022-12-01T22:31:43.052Z,78.60
2022-12-01T22:34:30.857Z,78.84
2022-12-01T22:37:25.386Z,78.76
2022-12-01T22:40:35.907Z,78.86
2022-12-01T22:43:28.382Z,78.96
2022-12-01T22:46:16.911Z,79.05
2022-12-01T22:49:10.311Z,78.98
2022-12-01T22:52:20.329Z,79.14
2022-12-01T22:55:15.522Z,79.41
2022-12-01T22:58:26.676Z,79.81
2022-12-01T23:01:25.342Z,80.19
2022-12-01T23:04:23.650Z,80.41
2022-12-01T23:07:26.957Z,80.41
2022-12-01T23:10:22.826Z,80.77
2022-12-01T23:13:28.595Z,81.15
2022-12-01T23:16:15.896Z,81.52
2022-12-01T23:19:03.187Z,81.71
2022-12-01T23:21:52.767Z,81.74
2022-12-01T23:24:40.508Z,81.88
2022-12-01T23:27:28.041Z,82.21
2022-12-01T23:30:18.397Z,82.54
2022-12-01T23:33:16.862Z,82.35
2022-12-01T23:36:15.987Z,82.37
2022-12-01T23:39:11.546Z,82.57
2022-12-01T23:42:00.161Z,82.88
2022-12-01T23:44:49.782Z,82.92
2022-12-01T23:47:37.520Z,83.15
2022-12-01T23:50:27.506Z,83.33
2022-12-01T23:53:31.330Z,83.42
2022-12-01T23:56:26.827Z,83.55
2022-12-01T23:59:14.585Z,83.74
